TKJ7NR LTCK-LTBR
Flight info
| Callsign | TKJ7NR |
|---|---|
| Flight time | 1h 44m |
| Altitude | 34000 |
| Route | BAYIR UT368 EZS UL614 TOKER UG8 EKMEL |
| Aircraft | A320/M-SDE3FGHIRWY/LB1 |
Departure
| Time | 2026-04-23 10:41 |
|---|---|
| Airport | Muş Airport (LTCK) |
Arrival
| Time | 2026-04-23 12:25 |
|---|---|
| Airport | Bursa Yenişehir Airport (LTBR) |
| Time | Latitude | Longitude | Altitude | Speed | Heading |
|---|---|---|---|---|---|
| 2026-04-23 10:22 | 38.75962 | 41.64650 | 4169 ft | 0 kts | 26° |
| 2026-04-23 10:34 | 38.75947 | 41.64641 | 4170 ft | 4 kts | 28° |
| 2026-04-23 10:34 | 38.75925 | 41.64623 | 4171 ft | 4 kts | 42° |
| 2026-04-23 10:34 | 38.75911 | 41.64598 | 4170 ft | 4 kts | 91° |
| 2026-04-23 10:35 | 38.75912 | 41.64586 | 4169 ft | 1 kts | 117° |
| 2026-04-23 10:37 | 38.75912 | 41.64587 | 4169 ft | 1 kts | 117° |
| 2026-04-23 10:37 | 38.75883 | 41.64622 | 4168 ft | 11 kts | 177° |
| 2026-04-23 10:37 | 38.75794 | 41.64571 | 4167 ft | 14 kts | 207° |
| 2026-04-23 10:38 | 38.75699 | 41.64508 | 4165 ft | 17 kts | 207° |
| 2026-04-23 10:38 | 38.75591 | 41.64441 | 4164 ft | 17 kts | 206° |
| 2026-04-23 10:38 | 38.75497 | 41.64381 | 4163 ft | 12 kts | 204° |
| 2026-04-23 10:38 | 38.75431 | 41.64431 | 4162 ft | 12 kts | 116° |
| 2026-04-23 10:39 | 38.75394 | 41.64528 | 4162 ft | 14 kts | 116° |
| 2026-04-23 10:39 | 38.75347 | 41.64648 | 4162 ft | 15 kts | 116° |
| 2026-04-23 10:39 | 38.75305 | 41.64759 | 4165 ft | 10 kts | 116° |
| 2026-04-23 10:39 | 38.75303 | 41.64763 | 4165 ft | 0 kts | 116° |
| 2026-04-23 10:40 | 38.75233 | 41.64944 | 4165 ft | 62 kts | 116° |
| 2026-04-23 10:40 | 38.74927 | 41.65739 | 4164 ft | 134 kts | 116° |
| 2026-04-23 10:40 | 38.74428 | 41.67021 | 4183 ft | 185 kts | 112° |
| 2026-04-23 10:40 | 38.73817 | 41.68521 | 4753 ft | 195 kts | 124° |
| 2026-04-23 10:41 | 38.73110 | 41.70058 | 5387 ft | 206 kts | 126° |
| 2026-04-23 10:41 | 38.72365 | 41.71616 | 6037 ft | 205 kts | 126° |
| 2026-04-23 10:41 | 38.71621 | 41.73175 | 6658 ft | 205 kts | 130° |
| 2026-04-23 10:41 | 38.70884 | 41.74726 | 7240 ft | 203 kts | 128° |
| 2026-04-23 10:42 | 38.70140 | 41.76298 | 7644 ft | 214 kts | 129° |
| 2026-04-23 10:42 | 38.69324 | 41.78008 | 7813 ft | 236 kts | 130° |
| 2026-04-23 10:42 | 38.68437 | 41.79875 | 8066 ft | 257 kts | 128° |
| 2026-04-23 10:42 | 38.67466 | 41.81928 | 8396 ft | 279 kts | 128° |
| 2026-04-23 10:43 | 38.66455 | 41.84098 | 9011 ft | 287 kts | 126° |
| 2026-04-23 10:43 | 38.65719 | 41.86519 | 9733 ft | 303 kts | 101° |
| 2026-04-23 10:43 | 38.66006 | 41.89229 | 10394 ft | 317 kts | 68° |
| 2026-04-23 10:43 | 38.67337 | 41.91484 | 11054 ft | 323 kts | 36° |
| 2026-04-23 10:44 | 38.69361 | 41.92639 | 11713 ft | 322 kts | 6° |
| 2026-04-23 10:44 | 38.71611 | 41.92467 | 11918 ft | 331 kts | 336° |
| 2026-04-23 10:44 | 38.73562 | 41.90911 | 12085 ft | 336 kts | 307° |
| 2026-04-23 10:44 | 38.74703 | 41.88324 | 12356 ft | 336 kts | 281° |
| 2026-04-23 10:45 | 38.75008 | 41.85354 | 12831 ft | 339 kts | 268° |
| 2026-04-23 10:45 | 38.75024 | 41.82323 | 13493 ft | 342 kts | 268° |
| 2026-04-23 10:45 | 38.75034 | 41.79257 | 14103 ft | 346 kts | 268° |
| 2026-04-23 10:45 | 38.75033 | 41.76179 | 14755 ft | 346 kts | 268° |
| 2026-04-23 10:46 | 38.75025 | 41.73087 | 15361 ft | 348 kts | 268° |
| 2026-04-23 10:46 | 38.74987 | 41.69983 | 15981 ft | 349 kts | 265° |
| 2026-04-23 10:46 | 38.74551 | 41.66922 | 16528 ft | 351 kts | 253° |
| 2026-04-23 10:46 | 38.73590 | 41.64033 | 17110 ft | 355 kts | 242° |
| 2026-04-23 10:47 | 38.72171 | 41.61425 | 17704 ft | 360 kts | 235° |
| 2026-04-23 10:47 | 38.70633 | 41.58879 | 18309 ft | 362 kts | 235° |
| 2026-04-23 10:47 | 38.69091 | 41.56321 | 18873 ft | 364 kts | 236° |
| 2026-04-23 10:47 | 38.67542 | 41.53751 | 19419 ft | 366 kts | 235° |
| 2026-04-23 10:48 | 38.65979 | 41.51164 | 19979 ft | 368 kts | 235° |
| 2026-04-23 10:48 | 38.64407 | 41.48562 | 20454 ft | 371 kts | 236° |
| 2026-04-23 10:48 | 38.62843 | 41.45974 | 20941 ft | 373 kts | 236° |
| 2026-04-23 10:48 | 38.61369 | 41.43203 | 21385 ft | 373 kts | 244° |
| 2026-04-23 10:49 | 38.60380 | 41.40185 | 21822 ft | 373 kts | 255° |
| 2026-04-23 10:49 | 38.59885 | 41.36931 | 22210 ft | 375 kts | 265° |
| 2026-04-23 10:49 | 38.59904 | 41.33592 | 22649 ft | 378 kts | 274° |
| 2026-04-23 10:49 | 38.60124 | 41.30233 | 23088 ft | 380 kts | 274° |
| 2026-04-23 10:50 | 38.60342 | 41.26858 | 23519 ft | 382 kts | 274° |
| 2026-04-23 10:50 | 38.60558 | 41.23463 | 23886 ft | 384 kts | 273° |
| 2026-04-23 10:50 | 38.60771 | 41.20055 | 24266 ft | 386 kts | 274° |
| 2026-04-23 10:50 | 38.60984 | 41.16623 | 24644 ft | 387 kts | 274° |
| 2026-04-23 10:51 | 38.61198 | 41.13190 | 25013 ft | 389 kts | 274° |
| 2026-04-23 10:51 | 38.61414 | 41.09728 | 25377 ft | 391 kts | 274° |
| 2026-04-23 10:51 | 38.61630 | 41.06265 | 25742 ft | 392 kts | 274° |
| 2026-04-23 10:51 | 38.61845 | 41.02778 | 26122 ft | 394 kts | 274° |
| 2026-04-23 10:52 | 38.62060 | 40.99278 | 26465 ft | 395 kts | 274° |
| 2026-04-23 10:52 | 38.62272 | 40.95767 | 26790 ft | 397 kts | 274° |
| 2026-04-23 10:52 | 38.62481 | 40.92241 | 27168 ft | 398 kts | 273° |
| 2026-04-23 10:52 | 38.62688 | 40.88708 | 27608 ft | 397 kts | 273° |
| 2026-04-23 10:53 | 38.62895 | 40.85196 | 28137 ft | 395 kts | 273° |
| 2026-04-23 10:53 | 38.63103 | 40.81695 | 28628 ft | 393 kts | 273° |
| 2026-04-23 10:53 | 38.63300 | 40.78212 | 29112 ft | 392 kts | 273° |
| 2026-04-23 10:53 | 38.63486 | 40.74746 | 29626 ft | 390 kts | 272° |
| 2026-04-23 10:54 | 38.63669 | 40.71288 | 30134 ft | 389 kts | 272° |
| 2026-04-23 10:54 | 38.63849 | 40.67845 | 30543 ft | 387 kts | 272° |
| 2026-04-23 10:54 | 38.64022 | 40.64426 | 30961 ft | 385 kts | 272° |
| 2026-04-23 10:54 | 38.64196 | 40.61012 | 31406 ft | 383 kts | 272° |
| 2026-04-23 10:55 | 38.64369 | 40.57619 | 31838 ft | 382 kts | 272° |
| 2026-04-23 10:55 | 38.64542 | 40.54237 | 32300 ft | 379 kts | 272° |
| 2026-04-23 10:55 | 38.64713 | 40.50881 | 32785 ft | 377 kts | 272° |
| 2026-04-23 10:55 | 38.64883 | 40.47577 | 33219 ft | 375 kts | 272° |
| 2026-04-23 10:56 | 38.65053 | 40.44246 | 33671 ft | 374 kts | 272° |
| 2026-04-23 10:56 | 38.65221 | 40.40935 | 33933 ft | 373 kts | 272° |
| 2026-04-23 10:56 | 38.65557 | 40.34197 | 33975 ft | 384 kts | 273° |
| 2026-04-23 10:57 | 38.65890 | 40.27362 | 33981 ft | 385 kts | 272° |
| 2026-04-23 10:57 | 38.66226 | 40.20538 | 33971 ft | 384 kts | 272° |
| 2026-04-23 10:58 | 38.66567 | 40.13732 | 33961 ft | 383 kts | 272° |
| 2026-04-23 10:58 | 38.66902 | 40.06929 | 33956 ft | 383 kts | 272° |
| 2026-04-23 10:59 | 38.67232 | 40.00131 | 33950 ft | 383 kts | 272° |
| 2026-04-23 10:59 | 38.67560 | 39.93359 | 33946 ft | 383 kts | 272° |
| 2026-04-23 11:00 | 38.67883 | 39.86558 | 33949 ft | 383 kts | 272° |
| 2026-04-23 11:00 | 38.68199 | 39.79752 | 33960 ft | 383 kts | 272° |
| 2026-04-23 11:01 | 38.68512 | 39.72952 | 33960 ft | 382 kts | 272° |
| 2026-04-23 11:01 | 38.68822 | 39.66161 | 33959 ft | 382 kts | 271° |
| 2026-04-23 11:02 | 38.69128 | 39.59385 | 33958 ft | 381 kts | 271° |
| 2026-04-23 11:02 | 38.69428 | 39.52603 | 33957 ft | 381 kts | 271° |
| 2026-04-23 11:03 | 38.69741 | 39.45838 | 33953 ft | 380 kts | 272° |
| 2026-04-23 11:03 | 38.70061 | 39.39068 | 33948 ft | 381 kts | 272° |
| 2026-04-23 11:04 | 38.70327 | 39.33442 | 33943 ft | 381 kts | 272° |
| 2026-04-23 11:04 | 38.70639 | 39.26675 | 33946 ft | 381 kts | 271° |
| 2026-04-23 11:05 | 38.71192 | 39.19930 | 33921 ft | 382 kts | 278° |
| 2026-04-23 11:05 | 38.72198 | 39.13236 | 33922 ft | 383 kts | 278° |
| 2026-04-23 11:06 | 38.73701 | 39.03195 | 33927 ft | 383 kts | 278° |
| 2026-04-23 11:07 | 38.74695 | 38.96497 | 33915 ft | 383 kts | 278° |
| 2026-04-23 11:07 | 38.75681 | 38.89799 | 33913 ft | 383 kts | 278° |
| 2026-04-23 11:08 | 38.76679 | 38.83102 | 33904 ft | 383 kts | 278° |
| 2026-04-23 11:08 | 38.77696 | 38.76392 | 33919 ft | 383 kts | 278° |
| 2026-04-23 11:09 | 38.78705 | 38.69712 | 33902 ft | 382 kts | 278° |
| 2026-04-23 11:09 | 38.79703 | 38.63070 | 33900 ft | 382 kts | 278° |
| 2026-04-23 11:10 | 38.80696 | 38.56387 | 33888 ft | 381 kts | 278° |
| 2026-04-23 11:10 | 38.81682 | 38.49703 | 33889 ft | 381 kts | 278° |
| 2026-04-23 11:11 | 38.82665 | 38.43025 | 33867 ft | 381 kts | 278° |
| 2026-04-23 11:11 | 38.83647 | 38.36337 | 33867 ft | 382 kts | 278° |
| 2026-04-23 11:12 | 38.84631 | 38.29651 | 33865 ft | 382 kts | 277° |
| 2026-04-23 11:12 | 38.85599 | 38.22951 | 33870 ft | 382 kts | 277° |
| 2026-04-23 11:13 | 38.86564 | 38.16256 | 33863 ft | 382 kts | 277° |
| 2026-04-23 11:13 | 38.87536 | 38.09569 | 33881 ft | 381 kts | 277° |
| 2026-04-23 11:14 | 38.88500 | 38.02874 | 33876 ft | 381 kts | 277° |
| 2026-04-23 11:14 | 38.89458 | 37.96188 | 33873 ft | 381 kts | 277° |
| 2026-04-23 11:15 | 38.90412 | 37.89510 | 33869 ft | 380 kts | 277° |
| 2026-04-23 11:15 | 38.91361 | 37.82830 | 33884 ft | 380 kts | 277° |
| 2026-04-23 11:16 | 38.92307 | 37.76158 | 33870 ft | 380 kts | 277° |
| 2026-04-23 11:16 | 38.93247 | 37.69493 | 33864 ft | 379 kts | 277° |
| 2026-04-23 11:17 | 38.94176 | 37.62828 | 33850 ft | 379 kts | 276° |
| 2026-04-23 11:17 | 38.95102 | 37.56155 | 33832 ft | 379 kts | 277° |
| 2026-04-23 11:18 | 38.96031 | 37.49480 | 33856 ft | 379 kts | 276° |
| 2026-04-23 11:18 | 38.96950 | 37.42847 | 33850 ft | 380 kts | 276° |
| 2026-04-23 11:19 | 38.97870 | 37.36165 | 33847 ft | 379 kts | 276° |
| 2026-04-23 11:19 | 38.98786 | 37.29491 | 33845 ft | 379 kts | 276° |
| 2026-04-23 11:20 | 38.99704 | 37.22754 | 33839 ft | 388 kts | 276° |
| 2026-04-23 11:20 | 39.00642 | 37.15836 | 33835 ft | 394 kts | 276° |
| 2026-04-23 11:21 | 39.01586 | 37.08885 | 33839 ft | 395 kts | 276° |
| 2026-04-23 11:21 | 39.02520 | 37.01923 | 33836 ft | 395 kts | 276° |
| 2026-04-23 11:22 | 39.03453 | 36.94956 | 33835 ft | 395 kts | 276° |
| 2026-04-23 11:22 | 39.04388 | 36.88001 | 33850 ft | 395 kts | 276° |
| 2026-04-23 11:23 | 39.05309 | 36.81041 | 33834 ft | 395 kts | 275° |
| 2026-04-23 11:23 | 39.06222 | 36.74113 | 33832 ft | 395 kts | 276° |
| 2026-04-23 11:24 | 39.07142 | 36.67137 | 33831 ft | 396 kts | 275° |
| 2026-04-23 11:24 | 39.08058 | 36.60134 | 33834 ft | 396 kts | 275° |
| 2026-04-23 11:25 | 39.08969 | 36.53140 | 33844 ft | 396 kts | 275° |
| 2026-04-23 11:25 | 39.09874 | 36.46144 | 33846 ft | 396 kts | 275° |
| 2026-04-23 11:26 | 39.10778 | 36.39153 | 33853 ft | 396 kts | 275° |
| 2026-04-23 11:26 | 39.11675 | 36.32159 | 33850 ft | 396 kts | 275° |
| 2026-04-23 11:27 | 39.12564 | 36.25167 | 33843 ft | 396 kts | 275° |
| 2026-04-23 11:27 | 39.13454 | 36.18176 | 33835 ft | 396 kts | 275° |
| 2026-04-23 11:28 | 39.14341 | 36.11170 | 33838 ft | 396 kts | 275° |
| 2026-04-23 11:28 | 39.15226 | 36.04219 | 33833 ft | 396 kts | 277° |
| 2026-04-23 11:29 | 39.16995 | 35.97410 | 33816 ft | 403 kts | 285° |
| 2026-04-23 11:29 | 39.19006 | 35.90662 | 33845 ft | 403 kts | 285° |
| 2026-04-23 11:30 | 39.21011 | 35.83907 | 33837 ft | 403 kts | 285° |
| 2026-04-23 11:30 | 39.23008 | 35.77156 | 33841 ft | 403 kts | 284° |
| 2026-04-23 11:31 | 39.25003 | 35.70388 | 33849 ft | 403 kts | 284° |
| 2026-04-23 11:31 | 39.26987 | 35.63625 | 33869 ft | 403 kts | 284° |
| 2026-04-23 11:32 | 39.28962 | 35.56852 | 33869 ft | 402 kts | 284° |
| 2026-04-23 11:32 | 39.30940 | 35.50098 | 33870 ft | 402 kts | 284° |
| 2026-04-23 11:33 | 39.32915 | 35.43342 | 33865 ft | 402 kts | 284° |
| 2026-04-23 11:33 | 39.34869 | 35.36628 | 33895 ft | 402 kts | 284° |
| 2026-04-23 11:34 | 39.36830 | 35.29868 | 33895 ft | 401 kts | 284° |
| 2026-04-23 11:34 | 39.38782 | 35.23110 | 33901 ft | 401 kts | 284° |
| 2026-04-23 11:35 | 39.40729 | 35.16352 | 33917 ft | 401 kts | 284° |
| 2026-04-23 11:35 | 39.42717 | 35.09605 | 33915 ft | 402 kts | 284° |
| 2026-04-23 11:36 | 39.44723 | 35.02849 | 33919 ft | 402 kts | 284° |
| 2026-04-23 11:36 | 39.46724 | 34.96081 | 33932 ft | 403 kts | 284° |
| 2026-04-23 11:37 | 39.48711 | 34.89302 | 33935 ft | 403 kts | 284° |
| 2026-04-23 11:37 | 39.50690 | 34.82515 | 33951 ft | 403 kts | 284° |
| 2026-04-23 11:38 | 39.52679 | 34.75715 | 33942 ft | 404 kts | 284° |
| 2026-04-23 11:38 | 39.54664 | 34.68906 | 33943 ft | 404 kts | 284° |
| 2026-04-23 11:39 | 39.56646 | 34.62088 | 33951 ft | 404 kts | 284° |
| 2026-04-23 11:39 | 39.58625 | 34.55264 | 33977 ft | 405 kts | 284° |
| 2026-04-23 11:40 | 39.60597 | 34.48422 | 33959 ft | 405 kts | 284° |
| 2026-04-23 11:40 | 39.62574 | 34.41563 | 33963 ft | 406 kts | 284° |
| 2026-04-23 11:41 | 39.64547 | 34.34689 | 33967 ft | 406 kts | 284° |
| 2026-04-23 11:41 | 39.66500 | 34.27856 | 33989 ft | 407 kts | 284° |
| 2026-04-23 11:42 | 39.68464 | 34.20974 | 33990 ft | 407 kts | 284° |
| 2026-04-23 11:42 | 39.70431 | 34.14083 | 33987 ft | 406 kts | 284° |
| 2026-04-23 11:43 | 39.72381 | 34.07204 | 33983 ft | 406 kts | 284° |
| 2026-04-23 11:43 | 39.74336 | 34.00311 | 34008 ft | 406 kts | 284° |
| 2026-04-23 11:44 | 39.76280 | 33.93442 | 33995 ft | 404 kts | 284° |
| 2026-04-23 11:44 | 39.78072 | 33.86537 | 33987 ft | 400 kts | 279° |
| 2026-04-23 11:45 | 39.79494 | 33.79562 | 33981 ft | 399 kts | 279° |
| 2026-04-23 11:45 | 39.80902 | 33.72581 | 33990 ft | 399 kts | 279° |
| 2026-04-23 11:46 | 39.82308 | 33.65598 | 33983 ft | 399 kts | 279° |
| 2026-04-23 11:46 | 39.83938 | 33.58677 | 33970 ft | 403 kts | 285° |
| 2026-04-23 11:47 | 39.85647 | 33.53030 | 33972 ft | 403 kts | 285° |
| 2026-04-23 11:47 | 39.87697 | 33.46225 | 33956 ft | 403 kts | 285° |
| 2026-04-23 11:48 | 39.89726 | 33.39428 | 33946 ft | 403 kts | 284° |
| 2026-04-23 11:48 | 39.91755 | 33.32618 | 33942 ft | 403 kts | 285° |
| 2026-04-23 11:49 | 39.93787 | 33.25797 | 33936 ft | 403 kts | 285° |
| 2026-04-23 11:49 | 39.95804 | 33.19028 | 33934 ft | 403 kts | 285° |
| 2026-04-23 11:50 | 39.97827 | 33.12211 | 33948 ft | 402 kts | 285° |
| 2026-04-23 11:50 | 39.99853 | 33.05367 | 33946 ft | 402 kts | 285° |
| 2026-04-23 11:51 | 40.01842 | 32.98616 | 33942 ft | 401 kts | 285° |
| 2026-04-23 11:51 | 40.03840 | 32.91807 | 33943 ft | 401 kts | 285° |
| 2026-04-23 11:52 | 40.05827 | 32.85011 | 33952 ft | 400 kts | 285° |
| 2026-04-23 11:52 | 40.07412 | 32.78119 | 33944 ft | 393 kts | 276° |
| 2026-04-23 11:53 | 40.08401 | 32.71094 | 33941 ft | 393 kts | 276° |
| 2026-04-23 11:53 | 40.09398 | 32.64071 | 33918 ft | 393 kts | 276° |
| 2026-04-23 11:54 | 40.10387 | 32.57043 | 33941 ft | 394 kts | 276° |
| 2026-04-23 11:54 | 40.11368 | 32.50002 | 33943 ft | 394 kts | 276° |
| 2026-04-23 11:55 | 40.12331 | 32.43078 | 33626 ft | 381 kts | 276° |
| 2026-04-23 11:55 | 40.12804 | 32.39674 | 33354 ft | 380 kts | 276° |
| 2026-04-23 11:55 | 40.13273 | 32.36281 | 33075 ft | 380 kts | 276° |
| 2026-04-23 11:55 | 40.13740 | 32.32888 | 32855 ft | 379 kts | 276° |
| 2026-04-23 11:56 | 40.14204 | 32.29505 | 32575 ft | 378 kts | 276° |
| 2026-04-23 11:56 | 40.14660 | 32.26155 | 32313 ft | 379 kts | 276° |
| 2026-04-23 11:56 | 40.15122 | 32.22759 | 32049 ft | 379 kts | 276° |
| 2026-04-23 11:56 | 40.15585 | 32.19362 | 31795 ft | 380 kts | 276° |
| 2026-04-23 11:57 | 40.16052 | 32.15961 | 31535 ft | 381 kts | 275° |
| 2026-04-23 11:57 | 40.16518 | 32.12544 | 31257 ft | 382 kts | 275° |
| 2026-04-23 11:57 | 40.16983 | 32.09124 | 30892 ft | 382 kts | 275° |
| 2026-04-23 11:57 | 40.17388 | 32.05694 | 30570 ft | 382 kts | 273° |
| 2026-04-23 11:58 | 40.17685 | 32.02250 | 30228 ft | 382 kts | 271° |
| 2026-04-23 11:58 | 40.17923 | 31.98783 | 29865 ft | 383 kts | 270° |
| 2026-04-23 11:58 | 40.18136 | 31.95303 | 29462 ft | 384 kts | 270° |
| 2026-04-23 11:58 | 40.18349 | 31.91828 | 29067 ft | 385 kts | 270° |
| 2026-04-23 11:59 | 40.18579 | 31.88291 | 28670 ft | 386 kts | 271° |
| 2026-04-23 11:59 | 40.18870 | 31.84843 | 28290 ft | 386 kts | 273° |
| 2026-04-23 11:59 | 40.19259 | 31.81371 | 27912 ft | 385 kts | 274° |
| 2026-04-23 11:59 | 40.19698 | 31.77933 | 27554 ft | 383 kts | 275° |
| 2026-04-23 12:00 | 40.20150 | 31.74514 | 27186 ft | 380 kts | 275° |
| 2026-04-23 12:00 | 40.20592 | 31.71109 | 26819 ft | 378 kts | 274° |
| 2026-04-23 12:00 | 40.21014 | 31.67731 | 26459 ft | 375 kts | 274° |
| 2026-04-23 12:00 | 40.21421 | 31.64366 | 26101 ft | 373 kts | 274° |
| 2026-04-23 12:01 | 40.21816 | 31.61015 | 25757 ft | 372 kts | 274° |
| 2026-04-23 12:01 | 40.22203 | 31.57679 | 25408 ft | 370 kts | 274° |
| 2026-04-23 12:01 | 40.22585 | 31.54358 | 25050 ft | 368 kts | 274° |
| 2026-04-23 12:01 | 40.22967 | 31.51054 | 24764 ft | 365 kts | 273° |
| 2026-04-23 12:02 | 40.23348 | 31.47791 | 24422 ft | 361 kts | 273° |
| 2026-04-23 12:02 | 40.23704 | 31.44784 | 24109 ft | 358 kts | 273° |
| 2026-04-23 12:06 | 40.23887 | 31.43222 | 23785 ft | 359 kts | 273° |
| 2026-04-23 12:07 | 40.24263 | 31.40025 | 23446 ft | 354 kts | 273° |
| 2026-04-23 12:07 | 40.24632 | 31.36840 | 23051 ft | 353 kts | 273° |
| 2026-04-23 12:07 | 40.24998 | 31.33667 | 22668 ft | 352 kts | 273° |
| 2026-04-23 12:07 | 40.25361 | 31.30496 | 22292 ft | 351 kts | 273° |
| 2026-04-23 12:08 | 40.25723 | 31.27332 | 21920 ft | 350 kts | 274° |
| 2026-04-23 12:08 | 40.26085 | 31.24184 | 21570 ft | 349 kts | 274° |
| 2026-04-23 12:08 | 40.26445 | 31.21035 | 21203 ft | 349 kts | 274° |
| 2026-04-23 12:08 | 40.26795 | 31.17933 | 20839 ft | 349 kts | 274° |
| 2026-04-23 12:09 | 40.27148 | 31.14788 | 20491 ft | 350 kts | 274° |
| 2026-04-23 12:09 | 40.27503 | 31.11640 | 20138 ft | 349 kts | 274° |
| 2026-04-23 12:09 | 40.27862 | 31.08458 | 19772 ft | 348 kts | 275° |
| 2026-04-23 12:09 | 40.28211 | 31.05361 | 19449 ft | 348 kts | 275° |
| 2026-04-23 12:10 | 40.28565 | 31.02225 | 19105 ft | 348 kts | 275° |
| 2026-04-23 12:10 | 40.28923 | 30.99047 | 18763 ft | 348 kts | 275° |
| 2026-04-23 12:10 | 40.29275 | 30.95910 | 18438 ft | 348 kts | 275° |
| 2026-04-23 12:10 | 40.29625 | 30.92763 | 18082 ft | 351 kts | 276° |
| 2026-04-23 12:11 | 40.29970 | 30.89631 | 17702 ft | 352 kts | 276° |
| 2026-04-23 12:11 | 40.30317 | 30.86467 | 17322 ft | 351 kts | 276° |
| 2026-04-23 12:11 | 40.30665 | 30.83292 | 16943 ft | 350 kts | 276° |
| 2026-04-23 12:11 | 40.31014 | 30.80129 | 16565 ft | 350 kts | 277° |
| 2026-04-23 12:12 | 40.31364 | 30.76983 | 16207 ft | 349 kts | 277° |
| 2026-04-23 12:12 | 40.31716 | 30.73832 | 15845 ft | 348 kts | 277° |
| 2026-04-23 12:12 | 40.32062 | 30.70692 | 15493 ft | 348 kts | 277° |
| 2026-04-23 12:12 | 40.32404 | 30.67557 | 15141 ft | 347 kts | 277° |
| 2026-04-23 12:13 | 40.32746 | 30.64422 | 14790 ft | 347 kts | 277° |
| 2026-04-23 12:13 | 40.33086 | 30.61304 | 14446 ft | 345 kts | 277° |
| 2026-04-23 12:13 | 40.33421 | 30.58221 | 14105 ft | 345 kts | 278° |
| 2026-04-23 12:13 | 40.33761 | 30.55071 | 13764 ft | 345 kts | 278° |
| 2026-04-23 12:14 | 40.34097 | 30.51955 | 13382 ft | 344 kts | 278° |
| 2026-04-23 12:14 | 40.34427 | 30.48884 | 13010 ft | 343 kts | 278° |
| 2026-04-23 12:14 | 40.34758 | 30.45789 | 12640 ft | 342 kts | 278° |
| 2026-04-23 12:14 | 40.35087 | 30.42703 | 12278 ft | 342 kts | 278° |
| 2026-04-23 12:15 | 40.35415 | 30.39624 | 11932 ft | 341 kts | 278° |
| 2026-04-23 12:15 | 40.35743 | 30.36546 | 11623 ft | 341 kts | 278° |
| 2026-04-23 12:15 | 40.36070 | 30.33471 | 11319 ft | 339 kts | 278° |
| 2026-04-23 12:15 | 40.36390 | 30.30456 | 11015 ft | 329 kts | 278° |
| 2026-04-23 12:16 | 40.36699 | 30.27523 | 10718 ft | 320 kts | 278° |
| 2026-04-23 12:16 | 40.37002 | 30.24665 | 10422 ft | 313 kts | 278° |
| 2026-04-23 12:16 | 40.37299 | 30.21866 | 10123 ft | 307 kts | 278° |
| 2026-04-23 12:16 | 40.37542 | 30.19111 | 9825 ft | 302 kts | 272° |
| 2026-04-23 12:17 | 40.37334 | 30.16384 | 9501 ft | 299 kts | 258° |
| 2026-04-23 12:17 | 40.36851 | 30.13762 | 9177 ft | 294 kts | 258° |
| 2026-04-23 12:17 | 40.36377 | 30.11176 | 8861 ft | 289 kts | 258° |
| 2026-04-23 12:17 | 40.35911 | 30.08623 | 8544 ft | 286 kts | 258° |
| 2026-04-23 12:18 | 40.35452 | 30.06105 | 8232 ft | 283 kts | 258° |
| 2026-04-23 12:18 | 40.34996 | 30.03608 | 7913 ft | 280 kts | 258° |
| 2026-04-23 12:18 | 40.34545 | 30.01141 | 7606 ft | 278 kts | 258° |
| 2026-04-23 12:18 | 40.34095 | 29.98685 | 7300 ft | 276 kts | 258° |
| 2026-04-23 12:19 | 40.33723 | 29.96213 | 6841 ft | 278 kts | 265° |
| 2026-04-23 12:19 | 40.33438 | 29.93693 | 6441 ft | 281 kts | 259° |
| 2026-04-23 12:19 | 40.32954 | 29.91208 | 6044 ft | 282 kts | 256° |
| 2026-04-23 12:19 | 40.32415 | 29.88726 | 5650 ft | 286 kts | 255° |
| 2026-04-23 12:20 | 40.31881 | 29.86197 | 5251 ft | 288 kts | 257° |
| 2026-04-23 12:20 | 40.31360 | 29.83692 | 4864 ft | 288 kts | 256° |
| 2026-04-23 12:20 | 40.30834 | 29.81178 | 4457 ft | 281 kts | 256° |
| 2026-04-23 12:20 | 40.30330 | 29.78776 | 4084 ft | 268 kts | 256° |
| 2026-04-23 12:21 | 40.29856 | 29.76520 | 3730 ft | 244 kts | 257° |
| 2026-04-23 12:21 | 40.29423 | 29.74465 | 3417 ft | 222 kts | 257° |
| 2026-04-23 12:21 | 40.29030 | 29.72595 | 3125 ft | 205 kts | 258° |
| 2026-04-23 12:21 | 40.28659 | 29.70824 | 2852 ft | 200 kts | 256° |
| 2026-04-23 12:22 | 40.28294 | 29.69087 | 2580 ft | 197 kts | 257° |
| 2026-04-23 12:22 | 40.27933 | 29.67373 | 2340 ft | 190 kts | 258° |
| 2026-04-23 12:22 | 40.27593 | 29.65765 | 2073 ft | 176 kts | 258° |
| 2026-04-23 12:22 | 40.27281 | 29.64287 | 1813 ft | 161 kts | 256° |
| 2026-04-23 12:23 | 40.26996 | 29.62936 | 1599 ft | 149 kts | 255° |
| 2026-04-23 12:23 | 40.26727 | 29.61651 | 1336 ft | 145 kts | 255° |
| 2026-04-23 12:23 | 40.26458 | 29.60382 | 1154 ft | 145 kts | 253° |
| 2026-04-23 12:23 | 40.26195 | 29.59108 | 984 ft | 146 kts | 253° |
| 2026-04-23 12:24 | 40.25922 | 29.57827 | 812 ft | 147 kts | 252° |
| 2026-04-23 12:24 | 40.25654 | 29.56590 | 767 ft | 127 kts | 255° |
| 2026-04-23 12:24 | 40.25459 | 29.55670 | 769 ft | 86 kts | 255° |
| 2026-04-23 12:24 | 40.25321 | 29.55031 | 767 ft | 62 kts | 255° |
| 2026-04-23 12:25 | 40.25246 | 29.54675 | 766 ft | 25 kts | 254° |
| 2026-04-23 12:25 | 40.25289 | 29.54532 | 768 ft | 18 kts | 342° |
| 2026-04-23 12:25 | 40.25360 | 29.54506 | 767 ft | 9 kts | 345° |
| 2026-04-23 12:25 | 40.25429 | 29.54482 | 767 ft | 11 kts | 345° |
| 2026-04-23 12:26 | 40.25498 | 29.54457 | 767 ft | 8 kts | 345° |
| 2026-04-23 12:26 | 40.25525 | 29.54420 | 767 ft | 5 kts | 319° |
| 2026-04-23 12:26 | 40.25553 | 29.54408 | 767 ft | 3 kts | 344° |
| 2026-04-23 12:26 | 40.25567 | 29.54403 | 767 ft | 2 kts | 343° |
| 2026-04-23 12:27 | 40.25571 | 29.54401 | 767 ft | 0 kts | 343° |